sensor_id;sensor_type;location;lat;lon;timestamp;temperature;humidity
25582;DHT22;13462;50.764;4.332;2022-12-18T00:00:43;-2.40;99.90
25582;DHT22;13462;50.764;4.332;2022-12-18T00:03:09;-2.50;99.90
25582;DHT22;13462;50.764;4.332;2022-12-18T00:05:35;-2.50;99.90
25582;DHT22;13462;50.764;4.332;2022-12-18T00:08:01;-2.50;99.90
25582;DHT22;13462;50.764;4.332;2022-12-18T00:10:28;-2.60;99.90
25582;DHT22;13462;50.764;4.332;2022-12-18T00:12:53;-2.60;99.90
25582;DHT22;13462;50.764;4.332;2022-12-18T00:15:19;-2.60;99.90
25582;DHT22;13462;50.764;4.332;2022-12-18T00:17:45;-2.60;99.90
25582;DHT22;13462;50.764;4.332;2022-12-18T00:20:10;-2.70;99.90
25582;DHT22;13462;50.764;4.332;2022-12-18T00:22:36;-2.70;99.90
25582;DHT22;13462;50.764;4.332;2022-12-18T00:25:01;-2.60;99.90
25582;DHT22;13462;50.764;4.332;2022-12-18T00:27:27;-2.60;99.90
25582;DHT22;13462;50.764;4.332;2022-12-18T00:29:53;-2.60;99.90
25582;DHT22;13462;50.764;4.332;2022-12-18T00:32:18;-2.70;99.90
25582;DHT22;13462;50.764;4.332;2022-12-18T00:34:44;-2.70;99.90
25582;DHT22;13462;50.764;4.332;2022-12-18T00:37:09;-2.70;99.90
25582;DHT22;13462;50.764;4.332;2022-12-18T00:39:35;-2.70;99.90
25582;DHT22;13462;50.764;4.332;2022-12-18T00:42:00;-2.70;99.90
25582;DHT22;13462;50.764;4.332;2022-12-18T00:44:44;-2.70;99.90
25582;DHT22;13462;50.764;4.332;2022-12-18T00:47:10;-2.60;99.90
25582;DHT22;13462;50.764;4.332;2022-12-18T00:49:35;-2.70;99.90
25582;DHT22;13462;50.764;4.332;2022-12-18T00:52:01;-2.60;99.90
25582;DHT22;13462;50.764;4.332;2022-12-18T00:54:26;-2.70;99.90
25582;DHT22;13462;50.764;4.332;2022-12-18T00:56:52;-2.70;99.90
25582;DHT22;13462;50.764;4.332;2022-12-18T00:59:18;-2.80;99.90
25582;DHT22;13462;50.764;4.332;2022-12-18T01:01:44;-2.80;99.90
25582;DHT22;13462;50.764;4.332;2022-12-18T01:04:10;-2.80;99.90
25582;DHT22;13462;50.764;4.332;2022-12-18T01:06:35;-2.90;99.90
25582;DHT22;13462;50.764;4.332;2022-12-18T01:09:01;-2.90;99.90
25582;DHT22;13462;50.764;4.332;2022-12-18T01:11:27;-2.90;99.90
25582;DHT22;13462;50.764;4.332;2022-12-18T01:13:54;-2.80;99.90
25582;DHT22;13462;50.764;4.332;2022-12-18T01:16:20;-2.90;99.90
25582;DHT22;13462;50.764;4.332;2022-12-18T01:18:46;-2.90;99.90
25582;DHT22;13462;50.764;4.332;2022-12-18T01:21:14;-2.90;99.90
25582;DHT22;13462;50.764;4.332;2022-12-18T01:23:40;-2.90;99.90
25582;DHT22;13462;50.764;4.332;2022-12-18T01:26:12;-2.90;99.90
25582;DHT22;13462;50.764;4.332;2022-12-18T01:28:38;-3.00;99.90
25582;DHT22;13462;50.764;4.332;2022-12-18T01:31:28;-3.00;99.90
25582;DHT22;13462;50.764;4.332;2022-12-18T01:33:55;-3.00;99.90
25582;DHT22;13462;50.764;4.332;2022-12-18T01:36:26;-3.00;99.90
25582;DHT22;13462;50.764;4.332;2022-12-18T01:38:53;-3.00;99.90
25582;DHT22;13462;50.764;4.332;2022-12-18T01:41:24;-3.00;99.90
25582;DHT22;13462;50.764;4.332;2022-12-18T01:43:57;-3.00;99.90
25582;DHT22;13462;50.764;4.332;2022-12-18T01:46:25;-3.00;99.90
25582;DHT22;13462;50.764;4.332;2022-12-18T01:49:01;-3.00;99.90
25582;DHT22;13462;50.764;4.332;2022-12-18T01:51:29;-3.10;99.90
25582;DHT22;13462;50.764;4.332;2022-12-18T01:54:15;-3.00;99.90
25582;DHT22;13462;50.764;4.332;2022-12-18T01:56:48;-3.10;99.90
25582;DHT22;13462;50.764;4.332;2022-12-18T01:59:15;-3.10;99.90
25582;DHT22;13462;50.764;4.332;2022-12-18T02:01:41;-3.10;99.90
25582;DHT22;13462;50.764;4.332;2022-12-18T02:04:26;-3.10;99.90
25582;DHT22;13462;50.764;4.332;2022-12-18T02:28:40;-3.10;99.90
25582;DHT22;13462;50.764;4.332;2022-12-18T02:31:10;-3.20;99.90
25582;DHT22;13462;50.764;4.332;2022-12-18T02:34:02;-3.10;99.90
25582;DHT22;13462;50.764;4.332;2022-12-18T02:41:30;-3.10;99.90
25582;DHT22;13462;50.764;4.332;2022-12-18T02:57:42;-3.30;99.90
25582;DHT22;13462;50.764;4.332;2022-12-18T03:13:54;-3.60;99.90
25582;DHT22;13462;50.764;4.332;2022-12-18T03:27:11;-3.60;99.90
25582;DHT22;13462;50.764;4.332;2022-12-18T03:37:32;-3.60;99.90
25582;DHT22;13462;50.764;4.332;2022-12-18T04:12:12;-3.40;99.90
25582;DHT22;13462;50.764;4.332;2022-12-18T04:20:36;-3.40;99.90
25582;DHT22;13462;50.764;4.332;2022-12-18T04:23:16;-3.50;99.90
25582;DHT22;13462;50.764;4.332;2022-12-18T04:36:10;-3.50;99.90
25582;DHT22;13462;50.764;4.332;2022-12-18T04:38:38;-3.50;99.90
25582;DHT22;13462;50.764;4.332;2022-12-18T05:25:59;-3.40;99.90
25582;DHT22;13462;50.764;4.332;2022-12-18T05:28:27;-3.40;99.90
25582;DHT22;13462;50.764;4.332;2022-12-18T05:30:56;-3.40;99.90
25582;DHT22;13462;50.764;4.332;2022-12-18T05:33:24;-3.30;99.90
25582;DHT22;13462;50.764;4.332;2022-12-18T05:35:57;-3.30;99.90
25582;DHT22;13462;50.764;4.332;2022-12-18T05:38:24;-3.30;99.90
25582;DHT22;13462;50.764;4.332;2022-12-18T05:40:51;-3.30;99.90
25582;DHT22;13462;50.764;4.332;2022-12-18T05:43:18;-3.40;99.90
25582;DHT22;13462;50.764;4.332;2022-12-18T05:45:44;-3.40;99.90
25582;DHT22;13462;50.764;4.332;2022-12-18T05:48:10;-3.40;99.90
25582;DHT22;13462;50.764;4.332;2022-12-18T05:50:37;-3.40;99.90
25582;DHT22;13462;50.764;4.332;2022-12-18T05:53:03;-3.40;99.90
25582;DHT22;13462;50.764;4.332;2022-12-18T05:55:33;-3.40;99.90
25582;DHT22;13462;50.764;4.332;2022-12-18T05:57:59;-3.40;99.90
25582;DHT22;13462;50.764;4.332;2022-12-18T06:00:24;-3.40;99.90
25582;DHT22;13462;50.764;4.332;2022-12-18T06:02:50;-3.50;99.90
25582;DHT22;13462;50.764;4.332;2022-12-18T06:05:16;-3.50;99.90
25582;DHT22;13462;50.764;4.332;2022-12-18T06:11:04;-3.50;99.90
25582;DHT22;13462;50.764;4.332;2022-12-18T06:13:52;-3.60;99.90
25582;DHT22;13462;50.764;4.332;2022-12-18T06:19:20;-3.60;99.90
25582;DHT22;13462;50.764;4.332;2022-12-18T06:21:49;-3.60;99.90
25582;DHT22;13462;50.764;4.332;2022-12-18T06:24:57;-3.60;99.90
25582;DHT22;13462;50.764;4.332;2022-12-18T06:27:14;-3.60;99.90
25582;DHT22;13462;50.764;4.332;2022-12-18T06:40:18;-3.80;99.90
25582;DHT22;13462;50.764;4.332;2022-12-18T06:52:33;-3.90;99.90
25582;DHT22;13462;50.764;4.332;2022-12-18T06:58:51;-3.90;99.90
25582;DHT22;13462;50.764;4.332;2022-12-18T07:24:19;-3.80;99.90
25582;DHT22;13462;50.764;4.332;2022-12-18T07:57:17;-3.70;99.90
25582;DHT22;13462;50.764;4.332;2022-12-18T08:49:55;-2.20;99.90
25582;DHT22;13462;50.764;4.332;2022-12-18T08:53:17;-2.10;99.90
25582;DHT22;13462;50.764;4.332;2022-12-18T09:26:11;-1.40;99.90
25582;DHT22;13462;50.764;4.332;2022-12-18T09:35:36;-1.30;99.90
25582;DHT22;13462;50.764;4.332;2022-12-18T09:38:14;-1.30;99.90
25582;DHT22;13462;50.764;4.332;2022-12-18T10:01:47;-0.80;99.90
25582;DHT22;13462;50.764;4.332;2022-12-18T10:08:07;-0.60;99.90
25582;DHT22;13462;50.764;4.332;2022-12-18T10:17:58;-0.40;99.90
25582;DHT22;13462;50.764;4.332;2022-12-18T10:20:45;-0.40;99.90
25582;DHT22;13462;50.764;4.332;2022-12-18T10:23:26;-0.40;99.90
25582;DHT22;13462;50.764;4.332;2022-12-18T10:26:31;-0.30;99.90
25582;DHT22;13462;50.764;4.332;2022-12-18T10:46:50;0.10;99.90
25582;DHT22;13462;50.764;4.332;2022-12-18T11:04:15;0.60;99.90
25582;DHT22;13462;50.764;4.332;2022-12-18T11:14:25;0.90;99.90
25582;DHT22;13462;50.764;4.332;2022-12-18T11:27:05;1.20;99.90
25582;DHT22;13462;50.764;4.332;2022-12-18T11:33:21;1.30;99.90
25582;DHT22;13462;50.764;4.332;2022-12-18T11:36:38;1.50;99.90
25582;DHT22;13462;50.764;4.332;2022-12-18T11:46:30;1.60;99.90
25582;DHT22;13462;50.764;4.332;2022-12-18T11:49:26;1.60;99.90
25582;DHT22;13462;50.764;4.332;2022-12-18T11:58:46;1.70;99.90
25582;DHT22;13462;50.764;4.332;2022-12-18T12:15:20;2.10;99.90
25582;DHT22;13462;50.764;4.332;2022-12-18T12:28:34;2.20;99.90
25582;DHT22;13462;50.764;4.332;2022-12-18T12:40:05;2.30;99.90
25582;DHT22;13462;50.764;4.332;2022-12-18T13:10:49;1.80;99.90
25582;DHT22;13462;50.764;4.332;2022-12-18T13:13:15;1.90;99.90
25582;DHT22;13462;50.764;4.332;2022-12-18T13:15:45;1.90;99.90
25582;DHT22;13462;50.764;4.332;2022-12-18T13:18:23;1.80;99.90
25582;DHT22;13462;50.764;4.332;2022-12-18T13:41:31;1.70;99.90
25582;DHT22;13462;50.764;4.332;2022-12-18T13:56:08;1.70;99.90
25582;DHT22;13462;50.764;4.332;2022-12-18T14:19:32;1.60;99.90
25582;DHT22;13462;50.764;4.332;2022-12-18T14:25:25;1.70;99.90
25582;DHT22;13462;50.764;4.332;2022-12-18T14:37:24;1.80;99.90
25582;DHT22;13462;50.764;4.332;2022-12-18T14:46:57;1.70;99.90
25582;DHT22;13462;50.764;4.332;2022-12-18T14:56:10;1.60;99.90
25582;DHT22;13462;50.764;4.332;2022-12-18T14:58:45;1.50;99.90
25582;DHT22;13462;50.764;4.332;2022-12-18T15:01:52;1.50;99.90
25582;DHT22;13462;50.764;4.332;2022-12-18T15:04:04;1.50;99.90
25582;DHT22;13462;50.764;4.332;2022-12-18T15:09:35;1.50;99.90
25582;DHT22;13462;50.764;4.332;2022-12-18T15:12:01;1.40;99.90
25582;DHT22;13462;50.764;4.332;2022-12-18T15:16:56;1.30;99.90
25582;DHT22;13462;50.764;4.332;2022-12-18T15:19:32;1.30;99.90
25582;DHT22;13462;50.764;4.332;2022-12-18T15:21:59;1.30;99.90
25582;DHT22;13462;50.764;4.332;2022-12-18T15:24:26;1.30;99.90
25582;DHT22;13462;50.764;4.332;2022-12-18T15:26:52;1.30;99.90
25582;DHT22;13462;50.764;4.332;2022-12-18T15:29:19;1.20;99.90
25582;DHT22;13462;50.764;4.332;2022-12-18T15:31:57;1.20;99.90
25582;DHT22;13462;50.764;4.332;2022-12-18T15:34:23;1.20;99.90
25582;DHT22;13462;50.764;4.332;2022-12-18T15:36:50;1.20;99.90
25582;DHT22;13462;50.764;4.332;2022-12-18T15:39:18;1.20;99.90
25582;DHT22;13462;50.764;4.332;2022-12-18T15:41:44;1.20;99.90
25582;DHT22;13462;50.764;4.332;2022-12-18T15:44:29;1.20;99.90
25582;DHT22;13462;50.764;4.332;2022-12-18T15:46:55;1.20;99.90
25582;DHT22;13462;50.764;4.332;2022-12-18T15:49:20;1.30;99.90
25582;DHT22;13462;50.764;4.332;2022-12-18T15:51:47;1.40;99.90
25582;DHT22;13462;50.764;4.332;2022-12-18T15:54:14;1.40;99.90
25582;DHT22;13462;50.764;4.332;2022-12-18T15:56:40;1.30;99.90
25582;DHT22;13462;50.764;4.332;2022-12-18T15:59:25;1.30;99.90
25582;DHT22;13462;50.764;4.332;2022-12-18T16:01:51;1.30;99.90
25582;DHT22;13462;50.764;4.332;2022-12-18T16:04:18;1.30;99.90
25582;DHT22;13462;50.764;4.332;2022-12-18T16:06:45;1.30;99.90
25582;DHT22;13462;50.764;4.332;2022-12-18T16:09:11;1.30;99.90
25582;DHT22;13462;50.764;4.332;2022-12-18T16:11:37;1.30;99.90
25582;DHT22;13462;50.764;4.332;2022-12-18T16:14:11;1.20;99.90
25582;DHT22;13462;50.764;4.332;2022-12-18T16:16:37;1.30;99.90
25582;DHT22;13462;50.764;4.332;2022-12-18T16:19:03;1.30;99.90
25582;DHT22;13462;50.764;4.332;2022-12-18T16:21:28;1.30;99.90
25582;DHT22;13462;50.764;4.332;2022-12-18T16:23:54;1.20;99.90
25582;DHT22;13462;50.764;4.332;2022-12-18T16:26:19;1.30;99.90
25582;DHT22;13462;50.764;4.332;2022-12-18T16:28:45;1.30;99.90
25582;DHT22;13462;50.764;4.332;2022-12-18T16:31:10;1.20;99.90
25582;DHT22;13462;50.764;4.332;2022-12-18T16:33:36;1.30;99.90
25582;DHT22;13462;50.764;4.332;2022-12-18T16:36:01;1.40;99.90
25582;DHT22;13462;50.764;4.332;2022-12-18T16:38:27;1.40;99.90
25582;DHT22;13462;50.764;4.332;2022-12-18T16:40:52;1.40;99.90
25582;DHT22;13462;50.764;4.332;2022-12-18T16:43:36;1.30;99.90
25582;DHT22;13462;50.764;4.332;2022-12-18T16:46:02;1.40;99.90
25582;DHT22;13462;50.764;4.332;2022-12-18T16:48:27;1.40;99.90
25582;DHT22;13462;50.764;4.332;2022-12-18T16:50:59;1.40;99.90
25582;DHT22;13462;50.764;4.332;2022-12-18T16:53:25;1.40;99.90
25582;DHT22;13462;50.764;4.332;2022-12-18T16:55:53;1.40;99.90
25582;DHT22;13462;50.764;4.332;2022-12-18T16:58:19;1.40;99.90
25582;DHT22;13462;50.764;4.332;2022-12-18T17:00:44;1.40;99.90
25582;DHT22;13462;50.764;4.332;2022-12-18T17:03:10;1.40;99.90
25582;DHT22;13462;50.764;4.332;2022-12-18T17:05:35;1.40;99.90
25582;DHT22;13462;50.764;4.332;2022-12-18T17:08:02;1.50;99.90
25582;DHT22;13462;50.764;4.332;2022-12-18T17:10:27;1.60;99.90
25582;DHT22;13462;50.764;4.332;2022-12-18T17:12:53;1.60;99.90
25582;DHT22;13462;50.764;4.332;2022-12-18T17:15:18;1.60;99.90
25582;DHT22;13462;50.764;4.332;2022-12-18T17:17:44;1.60;99.90
25582;DHT22;13462;50.764;4.332;2022-12-18T17:20:09;1.60;99.90
25582;DHT22;13462;50.764;4.332;2022-12-18T17:22:35;1.60;99.90
25582;DHT22;13462;50.764;4.332;2022-12-18T17:25:00;1.70;99.90
25582;DHT22;13462;50.764;4.332;2022-12-18T17:27:26;1.60;99.90
25582;DHT22;13462;50.764;4.332;2022-12-18T17:29:51;1.70;99.90
25582;DHT22;13462;50.764;4.332;2022-12-18T17:32:18;1.70;99.90
25582;DHT22;13462;50.764;4.332;2022-12-18T17:34:43;1.70;99.90
25582;DHT22;13462;50.764;4.332;2022-12-18T17:37:09;1.70;99.90
25582;DHT22;13462;50.764;4.332;2022-12-18T17:39:34;1.70;99.90
25582;DHT22;13462;50.764;4.332;2022-12-18T17:42:00;1.70;99.90
25582;DHT22;13462;50.764;4.332;2022-12-18T17:44:26;1.70;99.90
25582;DHT22;13462;50.764;4.332;2022-12-18T17:46:52;1.70;99.90
25582;DHT22;13462;50.764;4.332;2022-12-18T17:49:20;1.70;99.90
25582;DHT22;13462;50.764;4.332;2022-12-18T17:51:48;1.60;99.90
25582;DHT22;13462;50.764;4.332;2022-12-18T17:56:50;1.60;99.90
25582;DHT22;13462;50.764;4.332;2022-12-18T17:59:15;1.60;99.90
25582;DHT22;13462;50.764;4.332;2022-12-18T18:04:54;1.60;99.90
25582;DHT22;13462;50.764;4.332;2022-12-18T18:20:07;1.20;99.90
25582;DHT22;13462;50.764;4.332;2022-12-18T18:40:58;1.20;99.90
25582;DHT22;13462;50.764;4.332;2022-12-18T18:58:58;1.50;99.90
25582;DHT22;13462;50.764;4.332;2022-12-18T19:01:53;1.50;99.90
25582;DHT22;13462;50.764;4.332;2022-12-18T19:07:14;1.60;99.90
25582;DHT22;13462;50.764;4.332;2022-12-18T19:09:47;1.60;99.90
25582;DHT22;13462;50.764;4.332;2022-12-18T19:12:16;1.60;99.90
25582;DHT22;13462;50.764;4.332;2022-12-18T19:15:04;1.70;99.90
25582;DHT22;13462;50.764;4.332;2022-12-18T19:17:30;1.70;99.90
25582;DHT22;13462;50.764;4.332;2022-12-18T19:22:56;1.70;99.90
25582;DHT22;13462;50.764;4.332;2022-12-18T19:25:22;1.80;99.90
25582;DHT22;13462;50.764;4.332;2022-12-18T19:34:31;1.80;99.90
25582;DHT22;13462;50.764;4.332;2022-12-18T19:36:57;1.90;99.90
25582;DHT22;13462;50.764;4.332;2022-12-18T19:39:29;1.90;99.90
25582;DHT22;13462;50.764;4.332;2022-12-18T19:41:54;1.90;99.90
25582;DHT22;13462;50.764;4.332;2022-12-18T19:44:23;1.90;99.90
25582;DHT22;13462;50.764;4.332;2022-12-18T19:46:52;1.90;99.90
25582;DHT22;13462;50.764;4.332;2022-12-18T19:55:05;2.00;99.90
25582;DHT22;13462;50.764;4.332;2022-12-18T19:57:51;2.00;99.90
25582;DHT22;13462;50.764;4.332;2022-12-18T20:00:50;2.00;99.90
25582;DHT22;13462;50.764;4.332;2022-12-18T20:12:48;2.10;99.90
25582;DHT22;13462;50.764;4.332;2022-12-18T20:18:20;2.10;99.90
25582;DHT22;13462;50.764;4.332;2022-12-18T20:27:39;2.00;99.90
25582;DHT22;13462;50.764;4.332;2022-12-18T20:33:18;2.10;99.90
25582;DHT22;13462;50.764;4.332;2022-12-18T20:38:37;2.20;99.90
25582;DHT22;13462;50.764;4.332;2022-12-18T20:41:08;2.10;99.90
25582;DHT22;13462;50.764;4.332;2022-12-18T20:44:07;2.20;99.90
25582;DHT22;13462;50.764;4.332;2022-12-18T20:46:54;2.20;99.90
25582;DHT22;13462;50.764;4.332;2022-12-18T20:49:24;2.20;99.90
25582;DHT22;13462;50.764;4.332;2022-12-18T20:51:51;2.20;99.90
25582;DHT22;13462;50.764;4.332;2022-12-18T20:54:27;2.20;99.90
25582;DHT22;13462;50.764;4.332;2022-12-18T20:56:53;2.20;99.90
25582;DHT22;13462;50.764;4.332;2022-12-18T20:59:18;2.20;99.90
25582;DHT22;13462;50.764;4.332;2022-12-18T21:01:44;2.30;99.90
25582;DHT22;13462;50.764;4.332;2022-12-18T21:04:11;2.30;99.90
25582;DHT22;13462;50.764;4.332;2022-12-18T21:06:36;2.30;99.90
25582;DHT22;13462;50.764;4.332;2022-12-18T21:09:02;2.30;99.90
25582;DHT22;13462;50.764;4.332;2022-12-18T21:11:29;2.40;99.90
25582;DHT22;13462;50.764;4.332;2022-12-18T21:14:15;2.40;99.90
25582;DHT22;13462;50.764;4.332;2022-12-18T21:16:41;2.40;99.90
25582;DHT22;13462;50.764;4.332;2022-12-18T21:19:14;2.50;99.90
25582;DHT22;13462;50.764;4.332;2022-12-18T21:21:40;2.50;99.90
25582;DHT22;13462;50.764;4.332;2022-12-18T21:24:07;2.60;99.90
25582;DHT22;13462;50.764;4.332;2022-12-18T21:26:34;2.60;99.90
25582;DHT22;13462;50.764;4.332;2022-12-18T21:29:01;2.60;99.90
25582;DHT22;13462;50.764;4.332;2022-12-18T21:31:27;2.60;99.90
25582;DHT22;13462;50.764;4.332;2022-12-18T21:33:53;2.60;99.90
25582;DHT22;13462;50.764;4.332;2022-12-18T21:36:18;2.70;99.90
25582;DHT22;13462;50.764;4.332;2022-12-18T21:38:44;2.70;99.90
25582;DHT22;13462;50.764;4.332;2022-12-18T21:41:10;2.70;99.90
25582;DHT22;13462;50.764;4.332;2022-12-18T21:43:55;2.70;99.90
25582;DHT22;13462;50.764;4.332;2022-12-18T21:46:30;2.70;99.90
25582;DHT22;13462;50.764;4.332;2022-12-18T21:48:56;2.70;99.90
25582;DHT22;13462;50.764;4.332;2022-12-18T21:51:21;2.70;99.90
25582;DHT22;13462;50.764;4.332;2022-12-18T21:53:47;2.80;99.90
25582;DHT22;13462;50.764;4.332;2022-12-18T21:56:12;2.80;99.90
25582;DHT22;13462;50.764;4.332;2022-12-18T21:58:38;2.80;99.90
25582;DHT22;13462;50.764;4.332;2022-12-18T22:01:03;2.80;99.90
25582;DHT22;13462;50.764;4.332;2022-12-18T22:03:29;2.90;99.90
25582;DHT22;13462;50.764;4.332;2022-12-18T22:05:58;2.90;99.90
25582;DHT22;13462;50.764;4.332;2022-12-18T22:08:23;2.90;99.90
25582;DHT22;13462;50.764;4.332;2022-12-18T22:10:49;3.00;99.90
25582;DHT22;13462;50.764;4.332;2022-12-18T22:13:14;3.00;99.90
25582;DHT22;13462;50.764;4.332;2022-12-18T22:15:40;3.00;99.90
25582;DHT22;13462;50.764;4.332;2022-12-18T22:18:05;3.00;99.90
25582;DHT22;13462;50.764;4.332;2022-12-18T22:20:31;3.10;99.90
25582;DHT22;13462;50.764;4.332;2022-12-18T22:22:57;3.10;99.90
25582;DHT22;13462;50.764;4.332;2022-12-18T22:25:22;3.10;99.90
25582;DHT22;13462;50.764;4.332;2022-12-18T22:27:48;3.10;99.90
25582;DHT22;13462;50.764;4.332;2022-12-18T22:30:32;3.10;99.90
25582;DHT22;13462;50.764;4.332;2022-12-18T22:32:57;3.20;99.90
25582;DHT22;13462;50.764;4.332;2022-12-18T22:35:23;3.20;99.90
25582;DHT22;13462;50.764;4.332;2022-12-18T22:37:49;3.20;99.90
25582;DHT22;13462;50.764;4.332;2022-12-18T22:40:19;3.20;99.90
25582;DHT22;13462;50.764;4.332;2022-12-18T22:42:45;3.30;99.90
25582;DHT22;13462;50.764;4.332;2022-12-18T22:45:10;3.30;99.90
25582;DHT22;13462;50.764;4.332;2022-12-18T22:47:37;3.30;99.90
25582;DHT22;13462;50.764;4.332;2022-12-18T22:50:02;3.40;99.90
25582;DHT22;13462;50.764;4.332;2022-12-18T22:52:28;3.40;99.90
25582;DHT22;13462;50.764;4.332;2022-12-18T22:54:53;3.50;99.90
25582;DHT22;13462;50.764;4.332;2022-12-18T22:57:19;3.50;99.90
25582;DHT22;13462;50.764;4.332;2022-12-18T22:59:45;3.60;99.90
25582;DHT22;13462;50.764;4.332;2022-12-18T23:02:10;3.70;99.90
25582;DHT22;13462;50.764;4.332;2022-12-18T23:04:35;3.70;99.90
25582;DHT22;13462;50.764;4.332;2022-12-18T23:07:01;3.70;99.90
25582;DHT22;13462;50.764;4.332;2022-12-18T23:09:26;3.80;99.90
25582;DHT22;13462;50.764;4.332;2022-12-18T23:11:52;3.80;99.90
25582;DHT22;13462;50.764;4.332;2022-12-18T23:14:18;3.80;99.90
25582;DHT22;13462;50.764;4.332;2022-12-18T23:16:43;3.80;99.90
25582;DHT22;13462;50.764;4.332;2022-12-18T23:19:09;3.90;99.90
25582;DHT22;13462;50.764;4.332;2022-12-18T23:21:34;4.00;99.90
25582;DHT22;13462;50.764;4.332;2022-12-18T23:24:00;4.00;99.90
25582;DHT22;13462;50.764;4.332;2022-12-18T23:26:26;4.10;99.90
25582;DHT22;13462;50.764;4.332;2022-12-18T23:28:51;4.10;99.90
25582;DHT22;13462;50.764;4.332;2022-12-18T23:33:43;4.20;99.90
25582;DHT22;13462;50.764;4.332;2022-12-18T23:36:09;4.20;99.90
25582;DHT22;13462;50.764;4.332;2022-12-18T23:38:34;4.10;99.90
25582;DHT22;13462;50.764;4.332;2022-12-18T23:41:04;4.20;99.90
25582;DHT22;13462;50.764;4.332;2022-12-18T23:43:30;4.20;99.90
25582;DHT22;13462;50.764;4.332;2022-12-18T23:45:56;4.20;99.90
25582;DHT22;13462;50.764;4.332;2022-12-18T23:48:21;4.20;99.90
25582;DHT22;13462;50.764;4.332;2022-12-18T23:50:47;4.30;99.90
25582;DHT22;13462;50.764;4.332;2022-12-18T23:53:12;4.30;99.90
25582;DHT22;13462;50.764;4.332;2022-12-18T23:55:39;4.30;99.90
25582;DHT22;13462;50.764;4.332;2022-12-18T23:58:05;4.40;99.90
